createdAt,value
2017-12-20T00:00:36.216Z,48.90
2017-12-20T00:03:08.710Z,37.30
2017-12-20T00:05:41.219Z,45.17
2017-12-20T00:08:13.726Z,35.13
2017-12-20T00:10:46.235Z,45.10
2017-12-20T00:13:19.517Z,34.47
2017-12-20T00:15:53.927Z,41.20
2017-12-20T00:18:27.502Z,45.80
2017-12-20T00:21:00.306Z,54.30
2017-12-20T00:23:32.993Z,35.80
2017-12-20T00:26:05.939Z,61.17
2017-12-20T00:28:38.449Z,57.07
2017-12-20T00:31:10.977Z,53.97
2017-12-20T00:33:43.487Z,49.70
2017-12-20T00:36:16.048Z,44.87
2017-12-20T00:38:50.391Z,46.93
2017-12-20T00:41:25.769Z,56.83
2017-12-20T00:43:58.935Z,53.33
2017-12-20T00:46:31.760Z,38.17
2017-12-20T00:49:04.736Z,49.10
2017-12-20T00:51:37.790Z,56.97
2017-12-20T00:54:10.398Z,55.17
2017-12-20T00:56:42.907Z,56.80
2017-12-20T00:59:15.438Z,58.60
2017-12-20T01:01:47.952Z,50.53
2017-12-20T01:04:25.931Z,44.87
2017-12-20T01:06:59.501Z,31.50
2017-12-20T01:09:32.159Z,32.93
2017-12-20T01:12:04.999Z,30.67
2017-12-20T01:14:37.803Z,43.10
2017-12-20T01:17:10.342Z,35.40
2017-12-20T01:19:42.846Z,30.83
2017-12-20T01:22:15.376Z,37.97
2017-12-20T01:24:47.875Z,36.17
2017-12-20T01:27:22.830Z,29.00
2017-12-20T01:29:57.932Z,27.90
2017-12-20T01:32:30.631Z,33.10
2017-12-20T01:35:03.441Z,31.50
2017-12-20T01:37:36.003Z,42.10
2017-12-20T01:40:08.805Z,25.97
2017-12-20T01:42:41.323Z,27.10
2017-12-20T01:45:13.812Z,39.07
2017-12-20T01:47:46.317Z,34.63
2017-12-20T01:50:19.913Z,27.77
2017-12-20T01:52:57.447Z,26.60
2017-12-20T01:55:30.158Z,36.47
2017-12-20T01:58:03.029Z,27.07
2017-12-20T02:00:35.894Z,29.90
2017-12-20T02:03:08.881Z,28.73
2017-12-20T02:05:41.731Z,24.47
2017-12-20T02:08:14.252Z,33.83
2017-12-20T02:10:46.787Z,43.20
2017-12-20T02:13:21.556Z,29.73
2017-12-20T02:15:58.977Z,36.80
2017-12-20T02:18:32.021Z,35.37
2017-12-20T02:21:04.951Z,36.50
2017-12-20T02:23:38.362Z,30.47
2017-12-20T02:26:11.280Z,28.50
2017-12-20T02:28:43.788Z,23.23
2017-12-20T02:31:16.307Z,33.83
2017-12-20T02:33:49.749Z,29.03
2017-12-20T02:36:28.068Z,38.70
2017-12-20T02:39:06.830Z,33.03
2017-12-20T02:41:40.082Z,33.10
2017-12-20T02:44:12.574Z,31.80
2017-12-20T02:46:45.084Z,26.80
2017-12-20T02:49:17.706Z,39.47
2017-12-20T02:51:54.071Z,37.47
2017-12-20T02:54:29.136Z,37.73
2017-12-20T02:57:02.276Z,33.20
2017-12-20T02:59:35.490Z,38.57
2017-12-20T03:02:08.154Z,34.70
2017-12-20T03:04:41.507Z,33.73
2017-12-20T03:07:14.028Z,24.43
2017-12-20T03:09:46.518Z,23.63
2017-12-20T03:12:21.621Z,35.97
2017-12-20T03:14:55.834Z,20.00
2017-12-20T03:17:29.570Z,32.30
2017-12-20T03:20:02.773Z,34.47
2017-12-20T03:22:36.038Z,21.23
2017-12-20T03:25:09.497Z,35.87
2017-12-20T03:27:42.308Z,25.33
2017-12-20T03:30:14.808Z,26.47
2017-12-20T03:32:47.323Z,21.30
2017-12-20T03:35:21.975Z,23.63
2017-12-20T03:37:56.544Z,23.53
2017-12-20T03:40:29.783Z,21.47
2017-12-20T03:43:02.933Z,19.50
2017-12-20T03:45:35.636Z,19.17
2017-12-20T03:48:08.257Z,18.10
2017-12-20T03:50:40.749Z,19.73
2017-12-20T03:53:13.268Z,15.97
2017-12-20T03:55:45.758Z,18.63
2017-12-20T03:58:18.899Z,34.10
2017-12-20T04:00:52.790Z,22.83
2017-12-20T04:03:27.056Z,16.03
2017-12-20T04:05:59.896Z,29.77
2017-12-20T04:08:33.378Z,19.83
2017-12-20T04:11:06.570Z,16.87
2017-12-20T04:13:39.825Z,27.67
2017-12-20T04:16:12.573Z,21.03
2017-12-20T04:18:45.076Z,29.70
2017-12-20T04:21:17.589Z,25.67
2017-12-20T04:23:52.269Z,20.57
2017-12-20T04:26:27.724Z,25.90
2017-12-20T04:29:01.080Z,18.30
2017-12-20T04:31:34.026Z,15.30
2017-12-20T04:34:06.789Z,20.50
2017-12-20T04:36:39.332Z,20.33
2017-12-20T04:39:11.980Z,22.60
2017-12-20T04:41:44.504Z,26.13
2017-12-20T04:44:17.258Z,24.47
2017-12-20T04:46:50.694Z,22.20
2017-12-20T04:49:23.420Z,13.57
2017-12-20T04:51:56.007Z,15.00
2017-12-20T04:54:28.486Z,14.80
2017-12-20T04:57:01.118Z,13.90
2017-12-20T04:59:33.860Z,13.77
2017-12-20T05:02:06.643Z,24.57
2017-12-20T05:04:39.988Z,21.57
2017-12-20T05:07:12.564Z,17.60
2017-12-20T05:09:45.052Z,15.93
2017-12-20T05:12:17.570Z,23.73
2017-12-20T05:14:56.556Z,27.23
2017-12-20T05:17:29.925Z,17.40
2017-12-20T05:20:02.750Z,24.30
2017-12-20T05:22:37.705Z,28.43
2017-12-20T05:25:10.896Z,21.90
2017-12-20T05:27:43.439Z,22.70
2017-12-20T05:30:16.006Z,14.87
2017-12-20T05:32:48.585Z,14.43
2017-12-20T05:35:25.190Z,17.27
2017-12-20T05:38:00.025Z,17.17
2017-12-20T05:40:33.510Z,18.53
2017-12-20T05:43:06.093Z,14.80
2017-12-20T05:45:39.258Z,21.87
2017-12-20T05:48:11.782Z,25.30
2017-12-20T05:50:44.294Z,28.40
2017-12-20T05:53:16.817Z,25.30
2017-12-20T05:55:49.828Z,22.30
2017-12-20T05:58:24.028Z,12.93
2017-12-20T06:04:10.199Z,16.33
2017-12-20T06:06:42.745Z,14.10
2017-12-20T06:09:19.566Z,14.57
2017-12-20T06:11:52.160Z,12.57
2017-12-20T06:14:24.928Z,17.07
2017-12-20T06:17:15.170Z,15.17
2017-12-20T06:19:47.694Z,22.53
2017-12-20T06:22:32.487Z,15.93
2017-12-20T06:25:05.514Z,26.03
2017-12-20T06:27:39.702Z,24.00
2017-12-20T06:30:12.508Z,25.47
2017-12-20T06:32:45.106Z,29.30
2017-12-20T06:35:17.616Z,26.90
2017-12-20T06:37:55.134Z,14.77
2017-12-20T06:40:33.171Z,15.17
2017-12-20T06:43:05.826Z,16.43
2017-12-20T06:45:45.213Z,17.50
2017-12-20T06:48:18.006Z,24.57
2017-12-20T06:50:57.251Z,24.33
2017-12-20T06:53:42.729Z,27.10
2017-12-20T06:56:16.111Z,24.37
2017-12-20T06:58:49.179Z,24.73
2017-12-20T07:01:29.682Z,22.73
2017-12-20T07:04:06.461Z,13.43
2017-12-20T07:06:41.531Z,15.30
2017-12-20T07:09:14.139Z,13.53
2017-12-20T07:11:46.704Z,15.47
2017-12-20T07:14:28.244Z,19.53
2017-12-20T07:17:06.564Z,21.73
2017-12-20T07:19:40.189Z,16.30
2017-12-20T07:22:12.814Z,18.97
2017-12-20T07:24:45.319Z,19.20
2017-12-20T07:27:17.838Z,16.27
2017-12-20T07:29:58.046Z,19.20
2017-12-20T07:35:17.631Z,21.17
2017-12-20T07:37:50.731Z,19.83
2017-12-20T07:40:23.305Z,25.90
2017-12-20T07:43:11.058Z,16.47
2017-12-20T07:45:43.558Z,14.30
2017-12-20T07:48:30.363Z,24.43
2017-12-20T07:51:03.412Z,23.67
2017-12-20T07:53:41.107Z,22.27
2017-12-20T07:56:13.646Z,21.53
2017-12-20T07:58:47.261Z,17.53
2017-12-20T08:01:29.923Z,21.30
2017-12-20T08:04:23.631Z,23.50
2017-12-20T08:07:02.196Z,11.00
2017-12-20T08:09:38.963Z,20.30
2017-12-20T08:12:12.543Z,20.57
2017-12-20T08:14:45.074Z,13.73
2017-12-20T08:17:17.680Z,14.33
2017-12-20T08:20:01.525Z,20.07
2017-12-20T08:22:36.629Z,21.30
2017-12-20T08:25:09.204Z,17.30
2017-12-20T08:27:41.720Z,10.47
2017-12-20T08:30:14.476Z,15.63
2017-12-20T08:32:46.987Z,15.57
2017-12-20T08:35:20.478Z,19.60
2017-12-20T08:37:55.361Z,19.30
2017-12-20T08:40:29.795Z,18.17
2017-12-20T08:43:05.093Z,11.93
2017-12-20T08:45:40.092Z,18.23
2017-12-20T08:48:12.638Z,18.20
2017-12-20T08:50:45.125Z,18.57
2017-12-20T08:53:17.651Z,12.50
2017-12-20T08:55:55.376Z,10.97
2017-12-20T09:01:12.685Z,11.53
2017-12-20T09:03:45.216Z,9.73
2017-12-20T09:06:17.810Z,16.67
2017-12-20T09:08:56.545Z,12.47
2017-12-20T09:11:31.166Z,19.97
2017-12-20T09:14:06.993Z,24.80
2017-12-20T09:16:40.146Z,23.87
2017-12-20T09:19:12.675Z,12.53
2017-12-20T09:21:45.180Z,16.80
2017-12-20T09:24:17.990Z,16.57
2017-12-20T09:26:59.546Z,22.47
2017-12-20T09:29:33.450Z,15.80
2017-12-20T09:32:08.687Z,16.50
2017-12-20T09:34:41.222Z,11.37
2017-12-20T09:37:13.707Z,16.53
2017-12-20T09:39:46.226Z,13.50
2017-12-20T09:42:18.811Z,13.27
2017-12-20T09:44:51.975Z,16.07
2017-12-20T09:47:24.557Z,14.67
2017-12-20T09:50:00.129Z,15.47
2017-12-20T09:52:32.748Z,11.47
2017-12-20T09:55:08.810Z,14.57
2017-12-20T09:57:41.332Z,13.03
2017-12-20T10:00:14.095Z,11.07
2017-12-20T10:02:46.607Z,11.30
2017-12-20T10:05:20.840Z,11.43
2017-12-20T10:07:53.422Z,9.43
2017-12-20T10:10:26.034Z,9.83
2017-12-20T10:12:58.552Z,10.03
2017-12-20T10:15:31.045Z,11.07
2017-12-20T10:18:08.727Z,10.97
2017-12-20T10:20:41.270Z,13.43
2017-12-20T10:23:13.793Z,12.50
2017-12-20T10:25:46.295Z,11.87
2017-12-20T10:28:20.736Z,11.43
2017-12-20T10:31:01.022Z,12.07
2017-12-20T10:33:33.656Z,14.27
2017-12-20T10:36:07.249Z,12.17
2017-12-20T10:38:40.541Z,12.40
2017-12-20T10:41:13.027Z,14.70
2017-12-20T10:43:45.530Z,16.67
2017-12-20T10:46:18.187Z,14.43
2017-12-20T10:48:51.445Z,16.20
2017-12-20T10:51:28.321Z,15.27
2017-12-20T10:54:01.655Z,12.93
2017-12-20T10:56:34.234Z,15.43
2017-12-20T10:59:06.743Z,17.13
2017-12-20T11:01:40.001Z,14.57
2017-12-20T11:04:12.602Z,14.17
2017-12-20T11:06:45.194Z,15.10
2017-12-20T11:09:17.714Z,13.83
2017-12-20T11:11:51.805Z,13.53
2017-12-20T11:14:24.358Z,19.23
2017-12-20T11:16:58.648Z,17.13
2017-12-20T11:19:31.528Z,18.33
2017-12-20T11:22:04.029Z,13.67
2017-12-20T11:24:36.582Z,19.97
2017-12-20T11:27:09.064Z,27.00
2017-12-20T11:29:41.587Z,23.40
2017-12-20T11:32:14.993Z,19.57
2017-12-20T11:34:47.538Z,22.13
2017-12-20T11:37:21.159Z,18.33
2017-12-20T11:39:57.413Z,15.67
2017-12-20T11:42:34.832Z,16.30
2017-12-20T11:45:07.617Z,17.37
2017-12-20T11:47:40.378Z,17.20
2017-12-20T11:50:15.009Z,18.70
2017-12-20T11:52:47.499Z,14.63
2017-12-20T11:55:20.872Z,21.43
2017-12-20T11:57:57.813Z,17.33
2017-12-20T12:00:30.385Z,18.27
2017-12-20T12:03:02.884Z,16.90
2017-12-20T12:05:37.458Z,14.30
2017-12-20T12:08:10.045Z,18.60
2017-12-20T12:10:42.597Z,16.13
2017-12-20T12:13:15.122Z,13.20
2017-12-20T12:15:47.702Z,17.57
2017-12-20T12:18:26.500Z,12.83
2017-12-20T12:21:01.023Z,15.97
2017-12-20T12:23:33.850Z,12.73
2017-12-20T12:26:06.394Z,17.53
2017-12-20T12:28:38.979Z,14.90
2017-12-20T12:31:11.579Z,14.30
2017-12-20T12:33:44.091Z,12.27
2017-12-20T12:36:16.592Z,14.67
2017-12-20T12:38:49.298Z,16.00
2017-12-20T12:41:21.807Z,16.10
2017-12-20T12:43:58.079Z,14.50
2017-12-20T12:46:30.582Z,12.50
2017-12-20T12:49:03.286Z,13.73
2017-12-20T12:51:35.823Z,11.57
2017-12-20T12:54:08.507Z,14.67
2017-12-20T12:56:41.030Z,14.93
2017-12-20T12:59:13.539Z,11.23
2017-12-20T13:01:46.101Z,14.23
2017-12-20T13:04:18.774Z,11.67
2017-12-20T13:06:51.870Z,10.03
2017-12-20T13:09:24.447Z,12.57
2017-12-20T13:11:56.975Z,11.63
2017-12-20T13:14:29.774Z,13.60
2017-12-20T13:17:02.312Z,10.10
2017-12-20T13:19:34.943Z,12.27
2017-12-20T13:22:07.481Z,11.93
2017-12-20T13:24:40.102Z,8.60
2017-12-20T13:27:14.886Z,9.53
2017-12-20T13:29:47.416Z,9.27
2017-12-20T13:32:20.110Z,7.80
2017-12-20T13:34:52.662Z,9.50
2017-12-20T13:37:26.015Z,9.50
2017-12-20T13:39:58.889Z,13.20
2017-12-20T13:42:31.851Z,12.47
2017-12-20T13:45:04.457Z,13.90
2017-12-20T13:47:37.087Z,12.00
2017-12-20T13:50:09.665Z,12.27
2017-12-20T13:52:42.207Z,13.80
2017-12-20T13:55:14.935Z,13.83
2017-12-20T13:57:47.553Z,9.50
2017-12-20T14:00:20.486Z,15.23
2017-12-20T14:02:53.093Z,10.90
2017-12-20T14:05:33.672Z,14.60
2017-12-20T14:08:06.160Z,12.20
2017-12-20T14:10:38.777Z,13.40
2017-12-20T14:13:11.330Z,14.93
2017-12-20T14:15:43.811Z,11.20
2017-12-20T14:18:16.370Z,11.40
2017-12-20T14:20:49.794Z,15.30
2017-12-20T14:23:24.921Z,9.30
2017-12-20T14:25:57.680Z,14.37
2017-12-20T14:28:30.250Z,14.87
2017-12-20T14:31:03.336Z,10.80
2017-12-20T14:33:36.043Z,17.63
2017-12-20T14:36:08.559Z,17.23
2017-12-20T14:38:41.107Z,15.93
2017-12-20T14:41:13.827Z,18.17
2017-12-20T14:43:46.368Z,10.87
2017-12-20T14:46:19.160Z,11.43
2017-12-20T14:48:52.747Z,17.33
2017-12-20T14:51:26.430Z,13.27
2017-12-20T14:53:59.179Z,10.87
2017-12-20T14:56:31.910Z,13.33
2017-12-20T14:59:04.553Z,15.33
2017-12-20T15:01:37.062Z,20.27
2017-12-20T15:04:09.633Z,17.73
2017-12-20T15:06:42.186Z,17.43
2017-12-20T15:09:14.750Z,15.37
2017-12-20T15:11:47.356Z,16.03
2017-12-20T15:14:21.228Z,8.83
2017-12-20T15:16:54.498Z,12.40
2017-12-20T15:19:27.584Z,16.87
2017-12-20T15:22:00.297Z,12.23
2017-12-20T15:24:33.172Z,13.33
2017-12-20T15:27:07.723Z,13.50
2017-12-20T15:29:40.336Z,10.73
2017-12-20T15:32:12.961Z,13.27
2017-12-20T15:34:45.591Z,16.60
2017-12-20T15:37:19.744Z,14.60
2017-12-20T15:39:53.941Z,16.20
2017-12-20T15:42:26.937Z,10.10
2017-12-20T15:45:02.831Z,10.07
2017-12-20T15:47:36.469Z,10.50
2017-12-20T15:50:08.982Z,16.37
2017-12-20T15:52:41.506Z,16.30
2017-12-20T15:55:14.040Z,11.87
2017-12-20T15:57:47.677Z,17.77
2017-12-20T16:00:21.985Z,11.77
2017-12-20T16:02:54.551Z,11.27
2017-12-20T16:05:27.710Z,11.90
2017-12-20T16:08:00.275Z,17.07
2017-12-20T16:10:32.824Z,13.80
2017-12-20T16:13:05.306Z,16.70
2017-12-20T16:15:37.824Z,20.17
2017-12-20T16:18:10.526Z,15.53
2017-12-20T16:20:43.043Z,16.07
2017-12-20T16:23:17.074Z,20.00
2017-12-20T16:26:01.494Z,24.50
2017-12-20T16:28:34.793Z,16.27
2017-12-20T16:31:07.817Z,15.13
2017-12-20T16:33:40.525Z,14.83
2017-12-20T16:36:13.083Z,17.23
2017-12-20T16:38:45.602Z,18.80
2017-12-20T16:41:19.135Z,16.83
2017-12-20T16:43:55.584Z,18.60
2017-12-20T16:46:28.180Z,16.63
2017-12-20T16:49:01.146Z,12.80
2017-12-20T16:51:34.200Z,23.50
2017-12-20T16:54:06.808Z,17.60
2017-12-20T16:56:39.514Z,23.57
2017-12-20T16:59:12.034Z,21.13
2017-12-20T17:01:44.626Z,16.37
2017-12-20T17:04:20.409Z,11.70
2017-12-20T17:06:54.471Z,12.93
2017-12-20T17:09:27.451Z,18.67
2017-12-20T17:12:01.366Z,47.37
2017-12-20T17:14:34.185Z,24.47
2017-12-20T17:17:06.875Z,25.80
2017-12-20T17:19:39.452Z,28.43
2017-12-20T17:22:11.951Z,12.33
2017-12-20T17:24:44.522Z,18.37
2017-12-20T17:27:17.035Z,12.43
2017-12-20T17:29:50.601Z,15.50
2017-12-20T17:32:25.147Z,21.03
2017-12-20T17:34:57.766Z,9.57
2017-12-20T17:37:30.271Z,16.70
2017-12-20T17:40:02.788Z,11.83
2017-12-20T17:42:35.363Z,11.77
2017-12-20T17:45:07.883Z,15.13
2017-12-20T17:47:40.383Z,17.90
2017-12-20T17:50:12.958Z,28.60
2017-12-20T17:52:45.455Z,13.90
2017-12-20T17:55:17.959Z,21.43
2017-12-20T17:57:50.546Z,12.83
2017-12-20T18:00:23.108Z,19.90
2017-12-20T18:02:57.097Z,17.03
2017-12-20T18:05:31.558Z,8.90
2017-12-20T18:08:04.276Z,11.97
2017-12-20T18:10:36.802Z,8.00
2017-12-20T18:13:09.431Z,14.53
2017-12-20T18:15:43.052Z,12.60
2017-12-20T18:18:16.595Z,8.50
2017-12-20T18:20:52.187Z,10.40
2017-12-20T18:23:25.961Z,15.80
2017-12-20T18:25:58.593Z,16.93
2017-12-20T18:28:31.091Z,16.13
2017-12-20T18:31:03.642Z,19.13
2017-12-20T18:33:36.156Z,15.07
2017-12-20T18:36:09.080Z,15.77
2017-12-20T18:38:41.663Z,15.07
2017-12-20T18:41:14.187Z,12.57
2017-12-20T18:43:46.700Z,15.83
2017-12-20T18:46:20.574Z,18.37
2017-12-20T18:48:54.514Z,16.57
2017-12-20T18:51:27.097Z,24.10
2017-12-20T18:53:59.596Z,23.20
2017-12-20T18:56:32.731Z,15.27
2017-12-20T18:59:05.310Z,18.43
2017-12-20T19:01:37.896Z,11.97
2017-12-20T19:04:10.387Z,17.57
2017-12-20T19:06:42.905Z,13.97
2017-12-20T19:09:15.405Z,20.90
2017-12-20T19:11:50.075Z,16.73
2017-12-20T19:14:26.159Z,17.10
2017-12-20T19:16:59.101Z,16.17
2017-12-20T19:19:32.312Z,30.10
2017-12-20T19:22:04.841Z,20.23
2017-12-20T19:24:40.333Z,21.10
2017-12-20T19:27:12.972Z,20.93
2017-12-20T19:29:45.478Z,20.27
2017-12-20T19:32:18.304Z,23.53
2017-12-20T19:34:51.913Z,21.57
2017-12-20T19:37:25.933Z,19.60
2017-12-20T19:39:58.769Z,19.37
2017-12-20T19:42:31.307Z,24.20
2017-12-20T19:45:03.878Z,22.50
2017-12-20T19:47:36.390Z,21.43
2017-12-20T19:50:08.906Z,23.37
2017-12-20T19:52:41.517Z,22.97
2017-12-20T19:55:14.006Z,21.90
2017-12-20T19:57:46.526Z,22.47
2017-12-20T20:00:19.430Z,20.03
2017-12-20T20:02:55.291Z,23.90
2017-12-20T20:05:27.830Z,22.87
2017-12-20T20:08:00.351Z,23.53
2017-12-20T20:10:32.858Z,25.03
2017-12-20T20:13:05.938Z,23.57
2017-12-20T20:15:38.494Z,23.27
2017-12-20T20:18:13.617Z,24.07
2017-12-20T20:20:46.503Z,29.73
2017-12-20T20:23:19.034Z,23.07
2017-12-20T20:25:51.688Z,36.37
2017-12-20T20:28:24.244Z,32.97
2017-12-20T20:30:56.894Z,28.30
2017-12-20T20:33:29.537Z,22.47
2017-12-20T20:36:02.682Z,27.97
2017-12-20T20:38:35.738Z,33.83
2017-12-20T20:41:08.264Z,23.80
2017-12-20T20:43:40.799Z,30.03
2017-12-20T20:46:13.385Z,30.93
2017-12-20T20:48:45.875Z,38.37
2017-12-20T20:51:20.616Z,32.17
2017-12-20T20:53:53.241Z,31.00
2017-12-20T20:56:25.829Z,38.27
2017-12-20T20:58:58.351Z,33.13
2017-12-20T21:01:31.478Z,32.00
2017-12-20T21:04:04.027Z,39.53
2017-12-20T21:06:36.564Z,39.57
2017-12-20T21:09:09.674Z,33.73
2017-12-20T21:11:43.325Z,25.43
2017-12-20T21:14:17.907Z,34.37
2017-12-20T21:16:50.453Z,31.03
2017-12-20T21:19:22.957Z,37.63
2017-12-20T21:21:56.303Z,37.80
2017-12-20T21:24:28.867Z,31.63
2017-12-20T21:27:01.497Z,38.00
2017-12-20T21:29:34.015Z,36.93
2017-12-20T21:32:08.083Z,32.30
2017-12-20T21:34:41.290Z,36.40
2017-12-20T21:37:14.448Z,35.00
2017-12-20T21:39:47.354Z,38.90
2017-12-20T21:42:22.039Z,37.90
2017-12-20T21:44:55.085Z,39.77
2017-12-20T21:47:30.088Z,38.57
2017-12-20T21:50:04.047Z,36.80
2017-12-20T21:52:36.720Z,40.77
2017-12-20T21:55:09.249Z,34.57
2017-12-20T21:57:42.217Z,32.57
2017-12-20T22:00:15.517Z,37.43
2017-12-20T22:02:48.132Z,35.47
2017-12-20T22:05:20.754Z,35.20
2017-12-20T22:07:53.323Z,36.80
2017-12-20T22:10:25.855Z,35.60
2017-12-20T22:12:58.778Z,45.60
2017-12-20T22:15:31.563Z,38.93
2017-12-20T22:18:04.323Z,40.77
2017-12-20T22:20:37.264Z,33.57
2017-12-20T22:23:10.180Z,33.13
2017-12-20T22:25:42.804Z,33.23
2017-12-20T22:28:15.327Z,42.70
2017-12-20T22:30:47.852Z,33.77
2017-12-20T22:33:20.532Z,41.03
2017-12-20T22:35:53.069Z,36.07
2017-12-20T22:38:25.620Z,30.00
2017-12-20T22:40:58.115Z,30.90
2017-12-20T22:43:31.569Z,30.23
2017-12-20T22:46:04.196Z,33.83
2017-12-20T22:48:37.321Z,32.17
2017-12-20T22:51:09.855Z,31.60
2017-12-20T22:53:42.376Z,30.70
2017-12-20T22:56:14.904Z,33.90
2017-12-20T22:58:48.620Z,30.80
2017-12-20T23:01:21.162Z,32.90
2017-12-20T23:03:53.716Z,33.20
2017-12-20T23:06:26.394Z,31.73
2017-12-20T23:08:58.926Z,46.73
2017-12-20T23:11:31.440Z,30.17
2017-12-20T23:14:04.692Z,36.87
2017-12-20T23:16:37.242Z,34.00
2017-12-20T23:19:09.760Z,32.00
2017-12-20T23:21:42.265Z,28.83
2017-12-20T23:24:14.797Z,31.20
2017-12-20T23:26:47.386Z,36.60
2017-12-20T23:29:20.002Z,34.77
2017-12-20T23:31:55.363Z,30.63
2017-12-20T23:34:29.268Z,34.03
2017-12-20T23:37:01.822Z,37.83
2017-12-20T23:39:34.970Z,36.07
2017-12-20T23:42:07.514Z,29.53
2017-12-20T23:44:40.238Z,27.23
2017-12-20T23:47:13.032Z,26.17
2017-12-20T23:49:45.535Z,23.20
2017-12-20T23:52:18.044Z,28.03
2017-12-20T23:54:50.564Z,26.67
2017-12-20T23:57:23.083Z,24.90
2017-12-20T23:59:55.887Z,25.10
